createdAt,value
2023-05-27T00:01:45.718Z,101216.85
2023-05-27T00:06:48.487Z,101222.05
2023-05-27T00:11:50.076Z,101222.84
2023-05-27T00:16:52.466Z,101232.39
2023-05-27T00:21:54.291Z,101231.42
2023-05-27T00:26:55.891Z,101230.27
2023-05-27T00:31:57.522Z,101221.21
2023-05-27T00:36:59.140Z,101226.29
2023-05-27T00:42:02.850Z,101222.27
2023-05-27T00:47:04.564Z,101220.96
2023-05-27T00:52:06.797Z,101217.59
2023-05-27T00:57:08.826Z,101221.27
2023-05-27T01:02:11.641Z,101224.09
2023-05-27T01:07:40.798Z,101225.16
2023-05-27T01:13:00.306Z,101231.71
2023-05-27T01:18:04.363Z,101242.91
2023-05-27T01:23:06.055Z,101245.50
2023-05-27T01:28:07.595Z,101250.83
2023-05-27T01:33:14.039Z,101251.02
2023-05-27T01:38:20.086Z,101244.52
2023-05-27T01:43:22.790Z,101240.58
2023-05-27T01:48:24.387Z,101248.30
2023-05-27T01:53:26.138Z,101249.14
2023-05-27T01:58:27.722Z,101252.75
2023-05-27T02:03:29.481Z,101253.44
2023-05-27T02:08:31.669Z,101254.98
2023-05-27T02:13:33.294Z,101257.05
2023-05-27T02:18:36.397Z,101258.25
2023-05-27T02:23:37.943Z,101260.13
2023-05-27T02:28:39.504Z,101264.23
2023-05-27T02:33:41.263Z,101263.21
2023-05-27T02:38:42.846Z,101274.17
2023-05-27T02:43:44.412Z,101276.23
2023-05-27T02:48:47.129Z,101277.61
2023-05-27T02:53:48.829Z,101280.17
2023-05-27T02:58:50.387Z,101277.27
2023-05-27T03:03:51.971Z,101281.20
2023-05-27T03:08:53.567Z,101275.46
2023-05-27T03:13:55.365Z,101278.42
2023-05-27T03:18:56.914Z,101276.48
2023-05-27T03:23:58.462Z,101275.63
2023-05-27T03:29:00.012Z,101278.55
2023-05-27T03:34:01.649Z,101287.85
2023-05-27T03:39:03.245Z,101292.17
2023-05-27T03:44:04.997Z,101294.69
2023-05-27T03:49:06.633Z,101310.53
2023-05-27T03:54:08.231Z,101311.27
2023-05-27T03:59:09.818Z,101311.06
2023-05-27T04:04:11.743Z,101319.35
2023-05-27T04:09:13.814Z,101315.40
2023-05-27T04:14:15.899Z,101318.86
2023-05-27T04:19:18.057Z,101327.45
2023-05-27T04:24:19.593Z,101328.27
2023-05-27T04:29:21.341Z,101328.19
2023-05-27T04:34:22.984Z,101329.55
2023-05-27T04:39:24.511Z,101328.51
2023-05-27T04:44:27.880Z,101333.52
2023-05-27T04:49:29.636Z,101335.27
2023-05-27T04:54:35.792Z,101342.69
2023-05-27T04:59:57.303Z,101345.36
2023-05-27T05:04:59.797Z,101354.04
2023-05-27T05:10:01.594Z,101353.98
2023-05-27T05:15:04.002Z,101351.52
2023-05-27T05:20:07.142Z,101349.96
2023-05-27T05:25:09.111Z,101348.17
2023-05-27T05:30:10.980Z,101345.45
2023-05-27T05:35:12.524Z,101344.63
2023-05-27T05:40:14.355Z,101343.25
2023-05-27T05:45:16.042Z,101345.09
2023-05-27T05:50:17.831Z,101350.35
2023-05-27T05:55:19.423Z,101353.77
2023-05-27T06:00:27.321Z,101355.57
2023-05-27T06:05:28.901Z,101352.25
2023-05-27T06:10:30.477Z,101353.85
2023-05-27T06:15:33.157Z,101364.59
2023-05-27T06:20:34.780Z,101370.33
2023-05-27T06:25:36.424Z,101370.12
2023-05-27T06:30:44.746Z,101380.32
2023-05-27T06:35:46.268Z,101378.02
2023-05-27T06:40:48.137Z,101379.79
2023-05-27T06:46:02.425Z,101380.03
2023-05-27T06:51:07.349Z,101382.86
2023-05-27T06:56:08.790Z,101386.41
2023-05-27T07:01:10.591Z,101388.15
2023-05-27T07:06:12.339Z,101388.56
2023-05-27T07:11:13.950Z,101388.89
2023-05-27T07:16:15.570Z,101384.51
2023-05-27T07:21:17.459Z,101383.41
2023-05-27T07:26:19.105Z,101388.29
2023-05-27T07:31:20.907Z,101388.62
2023-05-27T07:36:22.934Z,101388.48
2023-05-27T07:41:25.524Z,101379.50
2023-05-27T07:46:27.289Z,101373.84
2023-05-27T07:51:28.874Z,101366.61
2023-05-27T07:56:30.958Z,101368.85
2023-05-27T08:01:33.874Z,101362.20
2023-05-27T08:06:36.941Z,101364.04
2023-05-27T08:11:38.473Z,101364.03
2023-05-27T08:16:40.022Z,101361.08
2023-05-27T08:21:41.623Z,101356.73
2023-05-27T08:26:43.147Z,101360.65
2023-05-27T08:31:44.845Z,101351.84
2023-05-27T08:36:46.473Z,101354.40
2023-05-27T08:41:48.545Z,101351.50
2023-05-27T08:46:51.487Z,101351.66
2023-05-27T08:51:54.970Z,101347.63
2023-05-27T08:57:00.523Z,101351.71
2023-05-27T09:02:03.713Z,101351.22
2023-05-27T09:07:05.612Z,101346.33
2023-05-27T09:12:09.853Z,101342.84
2023-05-27T09:17:11.394Z,101346.08
2023-05-27T09:22:22.608Z,101342.81
2023-05-27T09:27:28.332Z,101339.30
2023-05-27T09:32:33.585Z,101334.66
2023-05-27T09:37:35.993Z,101332.27
2023-05-27T09:42:45.593Z,101337.14
2023-05-27T09:47:51.867Z,101331.11
2023-05-27T09:53:05.860Z,101323.03
2023-05-27T09:58:13.875Z,101321.83
2023-05-27T10:03:18.074Z,101326.41
2023-05-27T10:13:27.064Z,101333.36
2023-05-27T10:18:31.251Z,101333.93
2023-05-27T10:23:33.222Z,101336.21
2023-05-27T10:28:37.610Z,101333.40
2023-05-27T10:33:43.266Z,101332.60
2023-05-27T10:38:56.679Z,101334.52
2023-05-27T10:43:59.992Z,101329.69
2023-05-27T10:49:14.877Z,101316.91
2023-05-27T10:54:29.053Z,101315.75
2023-05-27T10:59:49.372Z,101318.45
2023-05-27T11:04:52.152Z,101319.06
2023-05-27T11:09:54.569Z,101316.63
2023-05-27T11:14:56.981Z,101319.28
2023-05-27T11:19:59.976Z,101323.92
2023-05-27T11:25:04.110Z,101325.73
2023-05-27T11:30:14.229Z,101319.50
2023-05-27T11:35:18.385Z,101314.23
2023-05-27T11:40:20.221Z,101311.40
2023-05-27T11:45:23.321Z,101307.44
2023-05-27T11:50:26.136Z,101304.09
2023-05-27T11:55:27.729Z,101294.58
2023-05-27T12:00:36.387Z,101295.95
2023-05-27T12:05:37.920Z,101294.23
2023-05-27T12:10:39.500Z,101287.70
2023-05-27T12:15:41.153Z,101289.16
2023-05-27T12:20:43.261Z,101286.35
2023-05-27T12:25:44.862Z,101285.54
2023-05-27T12:30:50.467Z,101286.51
2023-05-27T12:35:52.900Z,101279.05
2023-05-27T12:40:56.867Z,101274.14
2023-05-27T12:45:59.152Z,101271.92
2023-05-27T12:51:04.495Z,101265.23
2023-05-27T12:56:06.483Z,101264.58
2023-05-27T13:01:08.192Z,101254.19
2023-05-27T13:06:09.861Z,101249.09
2023-05-27T13:11:11.388Z,101246.23
2023-05-27T13:16:13.896Z,101244.04
2023-05-27T13:21:15.423Z,101239.63
2023-05-27T13:26:17.279Z,101235.64
2023-05-27T13:31:18.846Z,101230.98
2023-05-27T13:36:20.560Z,101230.92
2023-05-27T13:41:22.231Z,101226.67
2023-05-27T13:46:23.869Z,101219.74
2023-05-27T13:51:25.655Z,101224.64
2023-05-27T13:56:27.378Z,101222.77
2023-05-27T14:01:28.981Z,101215.14
2023-05-27T14:06:31.047Z,101209.80
2023-05-27T14:11:32.683Z,101202.92
2023-05-27T14:16:34.278Z,101202.71
2023-05-27T14:21:35.787Z,101199.32
2023-05-27T14:26:37.919Z,101195.16
2023-05-27T14:31:39.829Z,101197.38
2023-05-27T14:36:41.865Z,101190.36
2023-05-27T14:41:43.578Z,101189.67
2023-05-27T14:46:45.186Z,101185.06
2023-05-27T14:51:47.549Z,101181.39
2023-05-27T14:56:49.369Z,101185.70
2023-05-27T15:01:50.960Z,101177.00
2023-05-27T15:06:52.552Z,101178.28
2023-05-27T15:11:54.462Z,101176.91
2023-05-27T15:16:56.069Z,101174.07
2023-05-27T15:21:57.678Z,101170.23
2023-05-27T15:27:00.122Z,101167.05
2023-05-27T15:32:02.690Z,101156.66
2023-05-27T15:37:04.281Z,101153.06
2023-05-27T15:42:07.677Z,101152.09
2023-05-27T15:47:09.499Z,101147.62
2023-05-27T15:52:13.468Z,101148.85
2023-05-27T15:57:15.066Z,101154.10
2023-05-27T16:02:16.682Z,101151.01
2023-05-27T16:07:18.311Z,101149.98
2023-05-27T16:12:19.917Z,101148.45
2023-05-27T16:17:23.247Z,101143.09
2023-05-27T16:22:25.188Z,101143.00
2023-05-27T16:27:27.024Z,101138.06
2023-05-27T16:32:29.227Z,101143.34
2023-05-27T16:37:31.290Z,101139.36
2023-05-27T16:42:33.560Z,101135.98
2023-05-27T16:47:36.489Z,101137.18
2023-05-27T16:52:39.168Z,101141.58
2023-05-27T16:57:40.734Z,101142.98
2023-05-27T17:02:42.305Z,101140.08
2023-05-27T17:07:44.449Z,101142.80
2023-05-27T17:12:46.074Z,101136.58
2023-05-27T17:17:47.630Z,101143.56
2023-05-27T17:22:49.237Z,101138.48
2023-05-27T17:27:50.837Z,101139.61
2023-05-27T17:32:52.435Z,101143.55
2023-05-27T17:37:54.086Z,101143.16
2023-05-27T17:42:55.931Z,101146.52
2023-05-27T17:47:57.519Z,101151.79
2023-05-27T17:52:59.068Z,101149.48
2023-05-27T17:58:00.822Z,101153.04
2023-05-27T18:03:02.474Z,101159.04
2023-05-27T18:08:04.216Z,101157.64
2023-05-27T18:13:05.972Z,101158.53
2023-05-27T18:18:07.527Z,101160.14
2023-05-27T18:23:09.640Z,101161.23
2023-05-27T18:28:11.520Z,101165.29
2023-05-27T18:33:13.230Z,101163.11
2023-05-27T18:38:14.998Z,101168.79
2023-05-27T18:43:17.252Z,101174.65
2023-05-27T18:48:19.712Z,101179.60
2023-05-27T18:53:22.572Z,101182.77
2023-05-27T18:58:24.152Z,101186.29
2023-05-27T19:03:25.868Z,101188.88
2023-05-27T19:08:27.426Z,101195.25
2023-05-27T19:13:29.027Z,101196.77
2023-05-27T19:18:30.714Z,101195.52
2023-05-27T19:23:32.314Z,101198.42
2023-05-27T19:28:33.943Z,101199.83
2023-05-27T19:33:36.452Z,101205.13
2023-05-27T19:38:37.997Z,101209.02
2023-05-27T19:43:39.524Z,101213.52
2023-05-27T19:48:41.212Z,101217.71
2023-05-27T19:53:45.945Z,101216.30
2023-05-27T19:58:47.760Z,101216.79
2023-05-27T20:03:49.460Z,101217.27
2023-05-27T20:08:51.262Z,101210.77
2023-05-27T20:13:52.851Z,101205.85
2023-05-27T20:18:54.489Z,101210.34
2023-05-27T20:23:58.318Z,101215.52
2023-05-27T20:29:01.247Z,101211.56
2023-05-27T20:34:02.791Z,101213.80
2023-05-27T20:39:04.473Z,101210.87
2023-05-27T20:44:06.025Z,101209.16
2023-05-27T20:49:07.566Z,101206.23
2023-05-27T20:54:10.283Z,101206.00
2023-05-27T20:59:11.893Z,101207.17
2023-05-27T21:04:13.994Z,101205.45
2023-05-27T21:09:15.804Z,101210.77
2023-05-27T21:14:17.643Z,101213.11
2023-05-27T21:19:19.227Z,101210.27
2023-05-27T21:24:21.332Z,101208.77
2023-05-27T21:29:22.912Z,101206.44
2023-05-27T21:34:24.830Z,101209.60
2023-05-27T21:39:31.002Z,101215.20
2023-05-27T21:44:32.581Z,101215.60
2023-05-27T21:49:34.164Z,101213.27
2023-05-27T21:54:35.751Z,101209.95
2023-05-27T21:59:38.118Z,101204.83
2023-05-27T22:04:39.758Z,101205.13
2023-05-27T22:09:41.633Z,101206.53
2023-05-27T22:14:43.160Z,101202.37
2023-05-27T22:19:44.705Z,101204.66
2023-05-27T22:24:46.565Z,101202.14
2023-05-27T22:29:50.349Z,101198.27
2023-05-27T22:34:51.916Z,101200.73
2023-05-27T22:39:53.480Z,101198.38
2023-05-27T22:44:55.003Z,101193.61
2023-05-27T22:49:56.642Z,101190.66
2023-05-27T22:54:58.236Z,101189.95
2023-05-27T22:59:59.793Z,101185.20
2023-05-27T23:05:01.397Z,101181.68
2023-05-27T23:10:03.132Z,101181.08
2023-05-27T23:15:05.099Z,101178.42
2023-05-27T23:20:09.237Z,101179.52
2023-05-27T23:25:10.917Z,101177.53
2023-05-27T23:30:12.992Z,101174.84
2023-05-27T23:35:18.532Z,101173.17
2023-05-27T23:40:20.112Z,101169.61
2023-05-27T23:45:21.647Z,101167.95
2023-05-27T23:50:23.231Z,101165.09
2023-05-27T23:55:24.816Z,101163.91
